Time;durP1;ratioP1;P1;durP2;ratioP2;P2;SDS_P1;SDS_P2;PMS_P1;PMS_P2;Temp;Humidity;BMP_temperature;BMP_pressure;BME280_temperature;BME280_humidity;BME280_pressure;Samples;Min_cycle;Max_cycle;Signal;HPM_P1;HPM_P2
2021/12/17 00:00:19;;;;;;;15.68;14.07;;;5.20;99.90;;;;;;5053554;28;20236;-73
2021/12/17 00:06:06;;;;;;;13.93;12.52;;;5.30;99.90;;;;;;5041565;28;20210;-73
2021/12/17 00:08:35;;;;;;;16.95;13.48;;;5.30;99.90;;;;;;5038865;28;20768;-73
2021/12/17 00:11:02;;;;;;;13.13;11.90;;;5.20;99.90;;;;;;5037107;28;20217;-73
2021/12/17 00:13:29;;;;;;;15.30;13.55;;;5.10;99.90;;;;;;5038981;28;20200;-73
2021/12/17 00:15:56;;;;;;;15.65;13.85;;;5.10;99.90;;;;;;5055556;28;20200;-73
2021/12/17 00:18:30;;;;;;;16.55;14.52;;;5.00;99.90;;;;;;5057837;28;20303;-73
2021/12/17 00:48:37;;;;;;;13.30;12.00;;;4.70;99.90;;;;;;5036856;28;20216;-73
2021/12/17 00:51:45;;;;;;;15.50;13.70;;;4.70;99.90;;;;;;5046854;28;20197;-73
2021/12/17 00:54:19;;;;;;;15.77;14.13;;;4.70;99.90;;;;;;5043816;28;20216;-73
2021/12/17 00:56:46;;;;;;;16.60;14.20;;;4.60;99.90;;;;;;5049462;28;20249;-73
2021/12/17 00:59:13;;;;;;;16.90;14.73;;;4.60;99.90;;;;;;5044637;28;20202;-73
2021/12/17 01:01:40;;;;;;;18.55;15.40;;;4.50;99.90;;;;;;5046170;28;20635;-72
2021/12/17 01:04:07;;;;;;;17.67;15.00;;;4.50;99.90;;;;;;5044508;28;20212;-72
2021/12/17 01:06:36;;;;;;;16.50;14.77;;;4.50;99.90;;;;;;5051783;28;20221;-73
2021/12/17 01:09:04;;;;;;;17.15;15.35;;;4.40;99.90;;;;;;5055312;28;20836;-73
2021/12/17 01:11:31;;;;;;;18.67;16.38;;;4.40;99.90;;;;;;5046464;28;20225;-73
2021/12/17 01:13:59;;;;;;;20.10;17.55;;;4.40;99.90;;;;;;5045827;28;20190;-73
2021/12/17 01:16:26;;;;;;;18.38;16.33;;;4.40;99.90;;;;;;5040343;28;20250;-73
2021/12/17 01:19:02;;;;;;;18.13;15.50;;;4.50;99.90;;;;;;5053415;28;20215;-73
2021/12/17 01:21:40;;;;;;;18.15;16.20;;;4.60;99.90;;;;;;5046930;28;20223;-73
2021/12/17 01:24:17;;;;;;;17.42;15.70;;;4.60;99.90;;;;;;5049502;28;20552;-73
2021/12/17 01:43:30;;;;;;;17.13;15.43;;;5.00;99.90;;;;;;5036036;28;20202;-73
2021/12/17 01:45:58;;;;;;;18.30;15.27;;;5.10;99.90;;;;;;5047393;28;20195;-73
2021/12/17 01:48:33;;;;;;;17.67;15.73;;;5.30;99.90;;;;;;5047122;28;20704;-73
2021/12/17 01:56:50;;;;;;;17.90;15.98;;;5.40;99.90;;;;;;5040778;28;20628;-73
2021/12/17 01:59:32;;;;;;;17.70;15.75;;;5.40;99.90;;;;;;5047347;28;20208;-73
2021/12/17 02:02:04;;;;;;;17.92;16.02;;;5.40;99.90;;;;;;5045986;28;20229;-73
2021/12/17 02:04:32;;;;;;;16.05;14.43;;;5.40;99.90;;;;;;5044432;28;20190;-73
2021/12/17 02:07:00;;;;;;;17.10;15.25;;;5.30;99.90;;;;;;5047857;28;20209;-73
2021/12/17 02:10:12;;;;;;;16.02;14.25;;;5.30;99.90;;;;;;5045916;28;20197;-74
2021/12/17 02:12:58;;;;;;;16.90;14.88;;;5.30;99.90;;;;;;5057825;28;20201;-73
2021/12/17 02:29:53;;;;;;;20.23;16.17;;;5.10;99.90;;;;;;5042768;28;20561;-73
2021/12/17 02:32:22;;;;;;;17.63;15.63;;;5.00;99.90;;;;;;5051268;28;20720;-73
2021/12/17 02:35:04;;;;;;;18.83;16.92;;;5.00;99.90;;;;;;5044080;28;20222;-72
2021/12/17 02:37:34;;;;;;;19.45;16.77;;;5.00;99.90;;;;;;5050884;28;20220;-72
2021/12/17 02:40:15;;;;;;;19.15;16.13;;;5.00;99.90;;;;;;5047808;28;20559;-73
2021/12/17 02:45:32;;;;;;;18.05;16.15;;;5.10;99.90;;;;;;5032417;28;20213;-73
2021/12/17 02:48:01;;;;;;;18.50;16.60;;;5.10;99.90;;;;;;5033399;28;20578;-74
2021/12/17 02:50:29;;;;;;;19.60;17.15;;;5.20;99.90;;;;;;5044748;28;20280;-73
2021/12/17 02:53:01;;;;;;;17.88;15.98;;;5.30;99.90;;;;;;5044768;28;20224;-73
2021/12/17 02:55:30;;;;;;;19.75;17.48;;;5.30;99.90;;;;;;5036766;28;20293;-73
2021/12/17 02:57:58;;;;;;;19.75;17.75;;;5.40;99.90;;;;;;5037082;28;20218;-73
2021/12/17 03:00:25;;;;;;;20.13;17.60;;;5.50;99.90;;;;;;5043362;28;20658;-73
2021/12/17 03:02:55;;;;;;;18.83;16.98;;;5.50;99.90;;;;;;5043423;28;20287;-73
2021/12/17 03:05:23;;;;;;;18.30;16.40;;;5.60;99.90;;;;;;5047314;28;20201;-73
2021/12/17 03:07:50;;;;;;;17.83;15.93;;;5.70;99.90;;;;;;5047565;28;20220;-73
2021/12/17 03:10:19;;;;;;;17.90;16.00;;;5.80;99.90;;;;;;5061561;28;20205;-74
2021/12/17 03:12:48;;;;;;;18.15;16.15;;;5.80;99.90;;;;;;5043132;28;20211;-73
2021/12/17 03:15:30;;;;;;;18.08;16.17;;;5.90;99.90;;;;;;5057083;28;20308;-73
2021/12/17 03:23:39;;;;;;;17.20;15.40;;;6.10;99.90;;;;;;5042792;28;20201;-73
2021/12/17 03:26:09;;;;;;;17.38;15.60;;;6.10;99.90;;;;;;5041944;28;20201;-73
2021/12/17 03:28:37;;;;;;;15.70;14.15;;;6.10;99.90;;;;;;5047170;28;20202;-73
2021/12/17 03:31:05;;;;;;;18.33;15.00;;;6.10;99.90;;;;;;5033872;28;20198;-73
2021/12/17 03:33:32;;;;;;;16.65;14.43;;;6.20;99.90;;;;;;5047712;28;20200;-73
2021/12/17 03:35:59;;;;;;;16.52;15.02;;;6.20;99.90;;;;;;5044212;28;20223;-73
2021/12/17 03:38:28;;;;;;;15.68;14.07;;;6.20;99.90;;;;;;5040980;28;20213;-73
2021/12/17 03:41:08;;;;;;;16.65;15.00;;;6.20;99.90;;;;;;5035966;28;20222;-73
2021/12/17 03:43:36;;;;;;;16.75;14.95;;;6.30;99.90;;;;;;5051287;28;20197;-73
2021/12/17 03:46:04;;;;;;;15.63;14.07;;;6.30;99.90;;;;;;5039801;28;20189;-73
2021/12/17 03:48:35;;;;;;;15.45;13.95;;;6.40;99.90;;;;;;5041071;28;20216;-73
2021/12/17 03:51:03;;;;;;;16.23;14.73;;;6.40;99.90;;;;;;5052468;28;20198;-73
2021/12/17 03:53:30;;;;;;;15.85;13.82;;;6.50;99.90;;;;;;5042238;28;20549;-72
2021/12/17 03:55:56;;;;;;;13.35;12.07;;;6.50;99.90;;;;;;5042110;28;20546;-73
2021/12/17 03:58:23;;;;;;;14.98;13.15;;;6.50;99.90;;;;;;5038331;28;20221;-73
2021/12/17 04:00:52;;;;;;;13.68;12.30;;;6.60;99.90;;;;;;5059145;28;20221;-72
2021/12/17 04:03:19;;;;;;;15.05;12.75;;;6.60;99.90;;;;;;5052968;28;20208;-73
2021/12/17 04:05:46;;;;;;;14.30;12.90;;;6.60;99.90;;;;;;5048758;28;20251;-73
2021/12/17 04:08:13;;;;;;;14.52;13.13;;;6.60;99.90;;;;;;5037417;28;20308;-73
2021/12/17 04:10:44;;;;;;;14.30;12.90;;;6.60;99.90;;;;;;5038327;28;20189;-74
2021/12/17 04:13:25;;;;;;;12.48;11.27;;;6.60;99.90;;;;;;5034921;28;20271;-73
2021/12/17 04:15:56;;;;;;;14.02;12.52;;;6.70;99.90;;;;;;5058823;28;20652;-73
2021/12/17 04:18:24;;;;;;;12.93;11.70;;;6.60;99.90;;;;;;5038573;28;20320;-72
2021/12/17 04:20:51;;;;;;;13.73;12.43;;;6.60;99.90;;;;;;5042127;28;20617;-74
2021/12/17 04:23:18;;;;;;;12.57;11.38;;;6.70;99.90;;;;;;5043330;28;20620;-73
2021/12/17 04:25:45;;;;;;;12.10;11.00;;;6.70;99.90;;;;;;5046383;28;20197;-73
2021/12/17 04:28:12;;;;;;;12.10;11.00;;;6.70;99.90;;;;;;5043434;28;20313;-72
2021/12/17 04:30:39;;;;;;;12.15;10.95;;;6.70;99.90;;;;;;5032498;28;20205;-73
2021/12/17 04:33:08;;;;;;;13.45;12.20;;;6.70;99.90;;;;;;5043965;28;20209;-72
2021/12/17 04:35:35;;;;;;;12.80;11.60;;;6.70;99.90;;;;;;5051900;28;20656;-72
2021/12/17 04:38:04;;;;;;;12.63;11.43;;;6.70;99.90;;;;;;5044174;28;20300;-73
2021/12/17 04:40:31;;;;;;;12.10;10.90;;;6.70;99.90;;;;;;5039231;28;20200;-72
2021/12/17 04:43:10;;;;;;;12.35;11.20;;;6.70;99.90;;;;;;5047336;28;20228;-73
2021/12/17 04:45:43;;;;;;;13.43;12.10;;;6.70;99.90;;;;;;5043951;28;20209;-73
2021/12/17 04:59:11;;;;;;;11.50;10.32;;;6.70;99.90;;;;;;5048332;28;20351;-72
2021/12/17 05:01:39;;;;;;;11.40;10.27;;;6.70;99.90;;;;;;5047698;28;20233;-73
2021/12/17 05:04:07;;;;;;;11.68;10.48;;;6.60;99.90;;;;;;5033305;28;20213;-72
2021/12/17 05:06:34;;;;;;;10.85;9.85;;;6.50;99.90;;;;;;5039162;28;20230;-73
2021/12/17 05:09:11;;;;;;;11.82;10.73;;;6.50;99.90;;;;;;5044831;28;20280;-73
2021/12/17 05:19:55;;;;;;;11.23;10.23;;;6.30;99.90;;;;;;5035837;28;20664;-73
2021/12/17 05:22:24;;;;;;;12.13;10.98;;;6.40;99.90;;;;;;5045230;28;20312;-73
2021/12/17 05:24:51;;;;;;;11.57;10.48;;;6.40;99.90;;;;;;5036302;28;20204;-73
2021/12/17 05:27:18;;;;;;;10.90;9.88;;;6.40;99.90;;;;;;5039566;28;20236;-73
2021/12/17 05:29:45;;;;;;;10.85;9.75;;;6.40;99.90;;;;;;5043379;28;20292;-73
2021/12/17 05:32:12;;;;;;;12.85;11.65;;;6.40;99.90;;;;;;5043392;28;20293;-73
2021/12/17 05:34:39;;;;;;;12.05;10.95;;;6.40;99.90;;;;;;5044285;28;20219;-73
2021/12/17 05:37:07;;;;;;;13.73;12.30;;;6.40;99.90;;;;;;5052750;28;20212;-73
2021/12/17 05:39:34;;;;;;;13.30;11.48;;;6.40;99.90;;;;;;5048753;28;20204;-73
2021/12/17 05:42:01;;;;;;;12.70;11.50;;;6.40;99.90;;;;;;5049734;28;20695;-73
2021/12/17 05:44:28;;;;;;;13.20;11.90;;;6.40;99.90;;;;;;5045104;28;20201;-73
2021/12/17 05:46:55;;;;;;;12.55;11.35;;;6.40;99.90;;;;;;5032757;28;20220;-74
2021/12/17 05:49:24;;;;;;;13.40;12.20;;;6.50;99.90;;;;;;5054185;28;20203;-73
2021/12/17 05:51:52;;;;;;;11.68;10.57;;;6.40;99.90;;;;;;5041918;28;20198;-74
2021/12/17 05:54:21;;;;;;;11.93;10.73;;;6.40;99.90;;;;;;5031630;28;20209;-74
2021/12/17 05:56:48;;;;;;;11.73;10.63;;;6.40;99.90;;;;;;5038335;28;20217;-74
2021/12/17 05:59:15;;;;;;;12.15;10.48;;;6.40;99.90;;;;;;5037492;28;20204;-74
2021/12/17 06:01:42;;;;;;;11.95;10.85;;;6.40;99.90;;;;;;5048183;28;20575;-90
2021/12/17 06:04:09;;;;;;;12.23;11.05;;;6.40;99.90;;;;;;5045389;28;20197;-89
2021/12/17 06:06:38;;;;;;;11.85;10.82;;;6.40;99.90;;;;;;5055151;28;20224;-92
2021/12/17 06:09:08;;;;;;;12.07;10.88;;;6.40;99.90;;;;;;5033858;28;20227;-89
2021/12/17 06:11:37;;;;;;;13.00;11.57;;;6.40;99.90;;;;;;5038607;28;20247;-92
2021/12/17 06:14:05;;;;;;;12.75;11.50;;;6.50;99.90;;;;;;5032024;28;20197;-90
2021/12/17 06:16:33;;;;;;;12.35;11.15;;;6.40;99.90;;;;;;5036700;28;20218;-87
2021/12/17 06:19:01;;;;;;;12.38;11.27;;;6.40;99.90;;;;;;5039419;28;20596;-89
2021/12/17 06:21:28;;;;;;;12.60;11.40;;;6.40;99.90;;;;;;5050104;28;20204;-88
2021/12/17 06:23:55;;;;;;;13.82;12.43;;;6.40;99.90;;;;;;5034955;28;20591;-87
2021/12/17 06:26:22;;;;;;;14.73;13.43;;;6.40;99.90;;;;;;5035919;28;20553;-89
2021/12/17 06:28:51;;;;;;;14.80;13.48;;;6.30;99.90;;;;;;5039348;28;20201;-80
2021/12/17 06:31:19;;;;;;;15.73;14.23;;;6.10;99.90;;;;;;5035151;28;20207;-80
2021/12/17 06:33:47;;;;;;;14.80;13.30;;;6.10;99.90;;;;;;5039840;28;20848;-80
2021/12/17 06:36:14;;;;;;;15.70;14.20;;;6.10;99.90;;;;;;5040375;28;20218;-81
2021/12/17 06:38:41;;;;;;;14.80;13.30;;;6.20;99.90;;;;;;5058012;28;20232;-81
2021/12/17 06:41:08;;;;;;;14.95;13.45;;;6.20;99.90;;;;;;5046371;28;20229;-80
2021/12/17 06:43:38;;;;;;;13.93;12.63;;;6.30;99.90;;;;;;5037016;28;20221;-82
2021/12/17 06:46:23;;;;;;;13.93;12.45;;;6.30;99.90;;;;;;5046300;28;20230;-82
2021/12/17 06:49:22;;;;;;;14.02;12.70;;;6.30;99.90;;;;;;5036163;28;20209;-80
2021/12/17 06:55:35;;;;;;;12.90;11.60;;;6.40;99.90;;;;;;5036721;28;20215;-79
2021/12/17 06:58:44;;;;;;;12.18;10.90;;;6.40;99.90;;;;;;5040611;28;20205;-79
2021/12/17 07:10:42;;;;;;;11.95;10.80;;;6.50;99.90;;;;;;5044060;28;20235;-80
2021/12/17 07:21:35;;;;;;;10.75;9.75;;;6.50;99.90;;;;;;5047685;28;20201;-81
2021/12/17 07:40:47;;;;;;;10.63;9.68;;;6.10;99.90;;;;;;5044022;28;20240;-80
2021/12/17 07:43:23;;;;;;;9.88;8.98;;;6.00;99.90;;;;;;5048546;28;20221;-79
2021/12/17 07:45:50;;;;;;;8.88;7.97;;;5.90;99.90;;;;;;5050568;28;20228;-80
2021/12/17 07:48:17;;;;;;;9.32;8.40;;;5.90;99.90;;;;;;5049548;28;20204;-79
2021/12/17 07:50:45;;;;;;;9.25;8.35;;;5.90;99.90;;;;;;5043763;28;20916;-79
2021/12/17 07:53:13;;;;;;;9.98;9.07;;;5.90;99.90;;;;;;5045519;28;20653;-79
2021/12/17 07:55:40;;;;;;;9.18;8.27;;;5.90;99.90;;;;;;5050229;28;20300;-80
2021/12/17 07:58:07;;;;;;;10.60;9.50;;;5.80;99.90;;;;;;5039743;28;20826;-79
2021/12/17 08:00:35;;;;;;;9.10;8.27;;;5.90;99.90;;;;;;5048595;28;20316;-80
2021/12/17 08:03:02;;;;;;;9.93;9.02;;;5.80;99.90;;;;;;5044473;28;20343;-80
2021/12/17 08:05:29;;;;;;;9.90;8.85;;;5.90;99.90;;;;;;5055302;28;20209;-80
2021/12/17 08:07:58;;;;;;;9.05;8.18;;;5.90;99.90;;;;;;5036989;28;20196;-79
2021/12/17 08:10:25;;;;;;;8.73;7.97;;;5.90;99.90;;;;;;5043785;28;20201;-78
2021/12/17 08:12:55;;;;;;;8.50;7.70;;;5.90;99.90;;;;;;5045927;28;20193;-79
2021/12/17 08:15:28;;;;;;;9.50;8.18;;;5.90;99.90;;;;;;5051101;28;20576;-79
2021/12/17 08:18:25;;;;;;;8.98;8.05;;;5.90;99.90;;;;;;5048380;28;21385;-79
2021/12/17 08:26:28;;;;;;;9.10;8.20;;;6.10;99.90;;;;;;5040249;28;20266;-80
2021/12/17 08:29:23;;;;;;;7.78;7.18;;;6.10;99.90;;;;;;5035925;28;20677;-80
2021/12/17 08:31:51;;;;;;;9.35;8.30;;;6.20;99.90;;;;;;5062003;28;20847;-80
2021/12/17 08:34:18;;;;;;;9.13;8.25;;;6.20;99.90;;;;;;5052463;28;20201;-80
2021/12/17 08:36:45;;;;;;;8.85;7.97;;;6.30;99.90;;;;;;5037001;28;20240;-80
2021/12/17 08:39:13;;;;;;;8.65;7.80;;;6.40;99.90;;;;;;5045049;28;20223;-80
2021/12/17 08:41:41;;;;;;;7.68;6.97;;;6.60;99.90;;;;;;5033945;28;20225;-80
2021/12/17 08:44:08;;;;;;;8.02;7.32;;;6.70;99.90;;;;;;5034374;28;20286;-79
2021/12/17 08:46:36;;;;;;;9.18;8.27;;;6.70;99.90;;;;;;5031376;28;20213;-81
2021/12/17 08:49:04;;;;;;;8.52;7.72;;;6.80;99.90;;;;;;5042166;28;20190;-79
2021/12/17 08:51:31;;;;;;;8.88;7.97;;;6.90;99.90;;;;;;5048815;28;20201;-79
2021/12/17 08:53:59;;;;;;;7.93;7.22;;;7.00;99.90;;;;;;5041432;28;20265;-80
2021/12/17 08:56:31;;;;;;;9.82;6.43;;;7.30;99.90;;;;;;5033696;28;20228;-80
2021/12/17 08:59:01;;;;;;;15.93;6.65;;;8.10;99.90;;;;;;5040531;28;20208;-80
2021/12/17 09:01:28;;;;;;;17.35;8.07;;;9.10;99.90;;;;;;5033789;28;20210;-80
2021/12/17 09:03:55;;;;;;;6.18;5.55;;;10.30;99.90;;;;;;5036025;28;20237;-80
2021/12/17 09:06:26;;;;;;;6.38;5.78;;;11.40;99.90;;;;;;5042877;28;20213;-80
2021/12/17 09:08:54;;;;;;;6.90;6.30;;;12.20;99.90;;;;;;5029216;28;20198;-80
2021/12/17 09:11:22;;;;;;;5.95;5.45;;;13.00;99.90;;;;;;5040204;28;20200;-80
2021/12/17 09:13:51;;;;;;;7.05;6.43;;;13.70;99.90;;;;;;5046291;28;20198;-80
2021/12/17 09:16:20;;;;;;;6.37;5.77;;;14.10;99.90;;;;;;5052989;28;20219;-80
2021/12/17 09:18:48;;;;;;;5.73;5.27;;;14.30;99.90;;;;;;5042533;28;20938;-80
2021/12/17 09:21:15;;;;;;;5.73;5.23;;;14.50;99.90;;;;;;5032899;28;20457;-80
2021/12/17 09:23:43;;;;;;;5.10;4.70;;;14.70;99.90;;;;;;5045292;28;20488;-80
2021/12/17 09:26:10;;;;;;;4.83;4.43;;;15.00;99.90;;;;;;5028011;28;20595;-80
2021/12/17 09:28:37;;;;;;;5.13;4.73;;;15.10;99.40;;;;;;5022897;28;20566;-80
2021/12/17 09:31:06;;;;;;;5.27;4.77;;;15.00;99.30;;;;;;5031621;28;20954;-80
2021/12/17 09:33:33;;;;;;;5.60;5.10;;;15.30;98.80;;;;;;5036379;28;20515;-80
2021/12/17 09:36:00;;;;;;;5.60;5.10;;;15.70;98.60;;;;;;5040507;28;20518;-81
2021/12/17 09:38:28;;;;;;;5.83;4.80;;;16.00;97.30;;;;;;5031569;28;20823;-80
2021/12/17 09:40:56;;;;;;;4.93;4.53;;;16.60;96.20;;;;;;5033100;28;20456;-80
2021/12/17 09:43:23;;;;;;;4.90;4.50;;;16.80;94.90;;;;;;5034786;28;20503;-81
2021/12/17 09:45:50;;;;;;;5.30;4.90;;;17.00;93.90;;;;;;5043055;28;20481;-81
2021/12/17 09:48:20;;;;;;;5.80;5.40;;;17.10;93.50;;;;;;5049506;28;20459;-78
2021/12/17 09:50:47;;;;;;;5.13;4.73;;;17.30;92.70;;;;;;5030377;28;20451;-81
2021/12/17 09:53:14;;;;;;;5.27;4.87;;;17.30;92.50;;;;;;5033789;28;20466;-81
2021/12/17 09:55:42;;;;;;;5.23;4.83;;;17.70;91.90;;;;;;5038903;28;20487;-80
2021/12/17 09:58:09;;;;;;;5.77;5.27;;;18.10;90.60;;;;;;5032301;28;20554;-80
2021/12/17 10:00:36;;;;;;;5.10;4.80;;;18.20;90.20;;;;;;5031826;28;20483;-80
2021/12/17 10:03:03;;;;;;;5.57;5.17;;;17.90;89.10;;;;;;5040565;28;20629;-80
2021/12/17 10:05:34;;;;;;;4.90;4.57;;;17.70;87.80;;;;;;5036312;28;20475;-80
2021/12/17 10:08:04;;;;;;;5.13;4.73;;;17.30;88.90;;;;;;5031513;28;20540;-80
2021/12/17 10:10:36;;;;;;;5.80;5.40;;;17.30;89.00;;;;;;5031684;28;21368;-80
2021/12/17 10:13:09;;;;;;;5.97;5.47;;;17.20;88.40;;;;;;5030330;28;20495;-80
2021/12/17 10:15:37;;;;;;;4.90;4.50;;;17.10;87.80;;;;;;5027509;28;20472;-80
2021/12/17 10:18:05;;;;;;;34.40;30.23;;;17.00;89.60;;;;;;5034241;28;20510;-80
2021/12/17 10:20:35;;;;;;;6.77;6.17;;;17.10;90.20;;;;;;5052384;28;20519;-80
2021/12/17 10:23:05;;;;;;;6.23;5.73;;;17.40;90.30;;;;;;5027279;28;20472;-80
2021/12/17 10:25:34;;;;;;;6.60;6.10;;;18.00;88.30;;;;;;5019144;28;20561;-80
2021/12/17 10:28:03;;;;;;;7.03;6.43;;;18.50;87.40;;;;;;5036449;28;20456;-81
2021/12/17 10:30:32;;;;;;;5.80;5.40;;;19.00;86.10;;;;;;5034763;28;20702;-80
2021/12/17 10:33:01;;;;;;;6.40;6.00;;;19.40;84.90;;;;;;5036485;28;20460;-86
2021/12/17 10:35:30;;;;;;;6.30;5.80;;;19.80;82.10;;;;;;5029540;28;20483;-80
2021/12/17 10:38:02;;;;;;;6.00;5.50;;;19.80;81.60;;;;;;5029570;28;20456;-80
2021/12/17 10:40:32;;;;;;;6.63;6.13;;;20.10;80.60;;;;;;5039174;28;20788;-80
2021/12/17 10:43:06;;;;;;;7.60;7.03;;;20.50;80.30;;;;;;5039554;28;20584;-80
2021/12/17 10:45:42;;;;;;;7.63;7.03;;;20.80;78.80;;;;;;5046773;28;20479;-80
2021/12/17 10:48:27;;;;;;;7.40;6.80;;;21.10;75.80;;;;;;5029148;28;20456;-80
2021/12/17 10:51:16;;;;;;;6.87;6.37;;;21.30;75.70;;;;;;5027031;28;20520;-79
2021/12/17 10:53:54;;;;;;;7.00;6.40;;;21.40;73.70;;;;;;5037178;28;20465;-80
2021/12/17 10:56:22;;;;;;;6.90;6.40;;;21.20;72.90;;;;;;5029033;28;21236;-79
2021/12/17 10:58:58;;;;;;;6.63;6.17;;;20.80;72.80;;;;;;5032388;28;20974;-80
2021/12/17 11:01:33;;;;;;;7.53;6.93;;;20.50;74.00;;;;;;5034927;28;20471;-80
2021/12/17 11:04:12;;;;;;;7.60;7.00;;;20.30;74.00;;;;;;5044165;28;20491;-80
2021/12/17 11:06:52;;;;;;;6.63;6.13;;;20.30;74.40;;;;;;5038264;28;21088;-80
2021/12/17 11:09:46;;;;;;;6.47;5.97;;;20.10;74.10;;;;;;5039763;28;20455;-80
2021/12/17 11:12:32;;;;;;;7.30;6.70;;;20.10;73.30;;;;;;5034433;28;20513;-80
2021/12/17 11:15:17;;;;;;;6.83;6.33;;;20.10;73.90;;;;;;5040099;28;20471;-80
2021/12/17 11:17:46;;;;;;;7.23;6.63;;;20.00;73.60;;;;;;5034723;28;20470;-79
2021/12/17 11:20:16;;;;;;;6.53;6.03;;;19.90;73.90;;;;;;5040360;28;20543;-80
2021/12/17 11:22:46;;;;;;;6.80;6.20;;;19.90;73.90;;;;;;5051097;28;20818;-80
2021/12/17 11:25:16;;;;;;;6.67;6.17;;;19.70;74.30;;;;;;5042242;28;20476;-80
2021/12/17 11:27:43;;;;;;;7.00;6.50;;;19.70;74.50;;;;;;5033953;28;20455;-80
2021/12/17 11:30:13;;;;;;;6.20;5.70;;;19.80;74.30;;;;;;5035287;28;20449;-80
2021/12/17 11:32:43;;;;;;;6.00;5.50;;;19.90;73.70;;;;;;5040353;28;20482;-80
2021/12/17 11:35:12;;;;;;;5.80;5.40;;;20.10;73.30;;;;;;5035587;28;20488;-80
2021/12/17 11:37:41;;;;;;;5.97;5.50;;;20.20;74.00;;;;;;5034651;28;20456;-81
2021/12/17 11:40:17;;;;;;;5.60;5.10;;;20.60;72.70;;;;;;5044144;28;20784;-80
2021/12/17 11:43:15;;;;;;;6.60;6.00;;;21.00;72.40;;;;;;5049396;28;20538;-80
2021/12/17 11:45:42;;;;;;;5.60;5.20;;;21.40;71.60;;;;;;5026436;28;20475;-80
2021/12/17 11:48:18;;;;;;;6.30;5.80;;;21.70;70.90;;;;;;5045616;28;20844;-80
2021/12/17 11:50:48;;;;;;;6.07;5.67;;;21.90;69.00;;;;;;5036822;28;20456;-80
2021/12/17 11:53:21;;;;;;;6.00;5.50;;;22.00;69.20;;;;;;5033100;28;20503;-80
2021/12/17 11:55:56;;;;;;;5.87;5.47;;;22.10;68.90;;;;;;5047258;28;20499;-80
2021/12/17 11:58:48;;;;;;;5.97;5.57;;;22.10;69.40;;;;;;5041838;28;20467;-80
2021/12/17 12:01:30;;;;;;;6.57;6.07;;;22.00;67.70;;;;;;5037709;28;20822;-79
2021/12/17 12:04:29;;;;;;;6.13;5.63;;;21.60;68.10;;;;;;5044697;28;20873;-80
2021/12/17 12:07:04;;;;;;;5.77;5.37;;;21.20;68.80;;;;;;5042123;28;20529;-81
2021/12/17 12:09:55;;;;;;;6.30;5.80;;;21.00;68.70;;;;;;5040796;28;20467;-79
2021/12/17 12:12:22;;;;;;;6.07;5.67;;;20.90;69.90;;;;;;5030201;28;20452;-81
2021/12/17 12:14:51;;;;;;;6.77;6.17;;;20.70;69.80;;;;;;5042696;28;20476;-79
2021/12/17 12:18:06;;;;;;;6.30;5.80;;;20.70;69.90;;;;;;5042098;28;20575;-79
2021/12/17 12:20:41;;;;;;;6.57;6.07;;;20.70;70.80;;;;;;4975766;28;20465;-90
2021/12/17 12:23:15;;;;;;;6.40;6.00;;;20.60;70.40;;;;;;4983335;28;20454;-80
2021/12/17 12:25:43;;;;;;;6.00;5.50;;;20.40;71.10;;;;;;5011075;28;20578;-80
2021/12/17 12:28:13;;;;;;;5.67;5.27;;;20.10;71.10;;;;;;5034763;28;20453;-81
2021/12/17 12:30:44;;;;;;;5.53;5.10;;;20.00;71.80;;;;;;5039192;28;20456;-81
2021/12/17 12:33:14;;;;;;;5.93;5.43;;;19.70;71.70;;;;;;5034442;28;20471;-80
2021/12/17 12:35:56;;;;;;;6.50;5.90;;;19.50;73.00;;;;;;5038788;28;20558;-80
2021/12/17 12:38:34;;;;;;;6.40;5.80;;;19.50;73.20;;;;;;5044925;28;20459;-82
2021/12/17 12:41:07;;;;;;;5.73;5.30;;;19.40;73.60;;;;;;5045159;28;20537;-81
2021/12/17 12:43:36;;;;;;;6.37;5.00;;;19.60;73.50;;;;;;5034612;28;20566;-82
2021/12/17 12:46:05;;;;;;;5.60;5.20;;;19.80;73.40;;;;;;5035852;28;20854;-81
2021/12/17 12:48:36;;;;;;;6.00;5.50;;;19.90;72.00;;;;;;5031259;28;20461;-81
2021/12/17 12:51:19;;;;;;;5.93;5.43;;;19.90;72.60;;;;;;5038482;28;20538;-81
2021/12/17 12:53:47;;;;;;;6.37;5.87;;;19.90;72.40;;;;;;5032995;28;20495;-82
2021/12/17 12:56:19;;;;;;;6.70;6.20;;;19.90;74.30;;;;;;5032591;28;20461;-81
2021/12/17 12:58:50;;;;;;;6.00;5.37;;;19.80;72.50;;;;;;5056921;28;21159;-81
2021/12/17 13:01:21;;;;;;;5.70;5.30;;;19.70;73.30;;;;;;5031553;28;20482;-81
2021/12/17 13:03:49;;;;;;;5.80;5.30;;;19.60;73.50;;;;;;5037234;28;20971;-81
2021/12/17 13:06:17;;;;;;;5.80;5.40;;;19.40;73.40;;;;;;5030290;28;20855;-81
2021/12/17 13:08:53;;;;;;;6.37;5.97;;;19.10;74.60;;;;;;5056432;28;20516;-81
2021/12/17 13:11:21;;;;;;;6.87;6.37;;;18.50;75.10;;;;;;5055696;28;20509;-81
2021/12/17 13:13:53;;;;;;;6.80;6.30;;;17.80;76.40;;;;;;5036817;28;20451;-81
2021/12/17 13:16:35;;;;;;;6.30;5.80;;;17.20;78.10;;;;;;5035902;28;20496;-81
2021/12/17 13:22:01;;;;;;;6.37;5.87;;;15.70;81.80;;;;;;5035830;28;20456;-81
2021/12/17 13:24:29;;;;;;;6.13;5.63;;;14.90;84.40;;;;;;5037794;28;20579;-81
2021/12/17 13:26:58;;;;;;;7.07;6.43;;;14.50;86.40;;;;;;5026118;28;20457;-81
2021/12/17 13:29:30;;;;;;;7.10;6.50;;;14.10;88.10;;;;;;5037873;28;20455;-80
2021/12/17 13:32:01;;;;;;;7.32;6.72;;;13.80;90.00;;;;;;5038488;28;20295;-81
2021/12/17 13:34:31;;;;;;;6.97;6.37;;;13.60;90.50;;;;;;5032418;28;20611;-80
2021/12/17 13:37:02;;;;;;;7.03;6.45;;;13.40;91.50;;;;;;5033943;28;20456;-81
2021/12/17 13:39:31;;;;;;;7.40;6.80;;;13.50;91.80;;;;;;5035886;28;20905;-81
2021/12/17 13:42:01;;;;;;;7.97;7.30;;;13.40;92.00;;;;;;5035642;28;20714;-81
2021/12/17 13:44:34;;;;;;;9.23;8.32;;;13.30;92.30;;;;;;5040670;28;20229;-82
2021/12/17 13:47:25;;;;;;;7.90;7.20;;;13.10;92.80;;;;;;5038637;28;20292;-82
2021/12/17 13:49:57;;;;;;;8.07;7.43;;;13.10;93.50;;;;;;5033626;28;20229;-82
2021/12/17 13:52:27;;;;;;;9.90;9.10;;;13.20;93.80;;;;;;5038523;28;20201;-80
2021/12/17 13:54:55;;;;;;;8.75;7.95;;;13.50;93.60;;;;;;5046074;28;20507;-82
2021/12/17 13:57:25;;;;;;;8.27;7.57;;;14.00;93.50;;;;;;5031916;28;20560;-82
2021/12/17 13:59:53;;;;;;;8.70;7.90;;;14.20;92.80;;;;;;5042097;28;20470;-82
2021/12/17 14:02:23;;;;;;;8.77;8.07;;;14.00;92.60;;;;;;5036134;28;20458;-82
2021/12/17 14:05:02;;;;;;;10.45;9.43;;;13.60;93.00;;;;;;5030204;28;20575;-81
2021/12/17 14:07:30;;;;;;;11.25;10.15;;;13.20;93.60;;;;;;5039114;28;20205;-81
2021/12/17 14:10:00;;;;;;;13.85;12.35;;;12.90;94.10;;;;;;5037385;28;20284;-81
2021/12/17 14:12:31;;;;;;;10.52;9.30;;;12.60;94.90;;;;;;5040166;28;20284;-82
2021/12/17 14:15:00;;;;;;;10.52;9.43;;;12.30;95.60;;;;;;5039171;28;20224;-81
2021/12/17 14:17:38;;;;;;;10.70;9.73;;;12.00;96.10;;;;;;5034171;28;20204;-81
2021/12/17 14:20:12;;;;;;;10.70;9.80;;;11.70;96.90;;;;;;5041861;28;20196;-81
2021/12/17 14:22:41;;;;;;;13.45;12.05;;;11.30;97.80;;;;;;5033476;28;20194;-81
2021/12/17 14:25:35;;;;;;;11.32;10.35;;;11.00;98.90;;;;;;5037853;28;20231;-86
2021/12/17 14:28:09;;;;;;;10.13;9.18;;;10.80;99.90;;;;;;5029924;28;20202;-83
2021/12/17 14:30:37;;;;;;;10.10;9.20;;;10.60;99.90;;;;;;5032116;28;20285;-82
2021/12/17 14:33:11;;;;;;;10.90;9.90;;;10.50;99.90;;;;;;5034546;28;20283;-81
2021/12/17 14:35:44;;;;;;;10.80;9.85;;;10.50;99.90;;;;;;5045837;28;20302;-81
2021/12/17 14:38:11;;;;;;;10.60;9.60;;;10.40;99.90;;;;;;5040741;28;20200;-81
2021/12/17 14:40:43;;;;;;;9.82;8.93;;;10.30;99.90;;;;;;5047601;28;20202;-81
2021/12/17 14:43:21;;;;;;;10.02;9.13;;;10.10;99.90;;;;;;5042137;28;20204;-81
2021/12/17 14:45:55;;;;;;;11.18;10.18;;;10.00;99.90;;;;;;5031312;28;20321;-81
2021/12/17 14:48:32;;;;;;;11.27;10.27;;;9.70;99.90;;;;;;5050386;28;20197;-82
2021/12/17 15:02:47;;;;;;;10.63;9.73;;;9.20;99.90;;;;;;5037078;28;20661;-80
2021/12/17 15:05:17;;;;;;;10.20;9.40;;;9.00;99.90;;;;;;5044259;28;20316;-84
2021/12/17 15:07:45;;;;;;;10.18;9.38;;;9.00;99.90;;;;;;5042130;28;20251;-81
2021/12/17 15:10:14;;;;;;;11.18;10.18;;;8.90;99.90;;;;;;5036575;28;20197;-80
2021/12/17 15:12:41;;;;;;;13.80;12.48;;;8.90;99.90;;;;;;5047407;28;20205;-80
2021/12/17 15:15:11;;;;;;;11.75;10.65;;;8.80;99.90;;;;;;5046597;28;20367;-81
2021/12/17 15:17:39;;;;;;;11.00;10.10;;;8.70;99.90;;;;;;5044257;28;20197;-81
2021/12/17 15:20:09;;;;;;;11.68;10.68;;;8.60;99.90;;;;;;5048313;28;20259;-86
2021/12/17 15:22:38;;;;;;;14.50;13.40;;;8.60;99.90;;;;;;5049345;28;20280;-80
2021/12/17 15:25:08;;;;;;;10.90;10.00;;;8.60;99.90;;;;;;5035832;28;20317;-80
2021/12/17 15:27:35;;;;;;;10.85;9.85;;;8.50;99.90;;;;;;5041674;28;20208;-80
2021/12/17 15:30:05;;;;;;;9.57;8.80;;;8.50;99.90;;;;;;5049739;28;20206;-80
2021/12/17 15:32:32;;;;;;;11.48;10.52;;;8.40;99.90;;;;;;5054592;28;20607;-80
2021/12/17 15:34:59;;;;;;;11.27;10.38;;;8.40;99.90;;;;;;5054091;28;20641;-80
2021/12/17 15:37:26;;;;;;;11.57;10.57;;;8.30;99.90;;;;;;5040925;28;20288;-80